createdAt,value
2023-09-06T00:04:49.672Z,19.41
2023-09-06T00:09:54.855Z,19.37
2023-09-06T00:14:58.882Z,19.33
2023-09-06T00:20:02.156Z,19.31
2023-09-06T00:25:09.343Z,19.27
2023-09-06T00:30:21.963Z,19.19
2023-09-06T00:35:27.899Z,19.13
2023-09-06T00:40:31.205Z,19.09
2023-09-06T00:45:51.985Z,19.05
2023-09-06T00:50:57.824Z,19.00
2023-09-06T00:56:04.732Z,18.97
2023-09-06T01:01:07.676Z,18.94
2023-09-06T01:06:21.970Z,18.92
2023-09-06T01:11:28.894Z,18.90
2023-09-06T01:16:43.274Z,18.85
2023-09-06T01:22:01.965Z,18.75
2023-09-06T01:27:07.212Z,18.67
2023-09-06T01:32:12.122Z,18.59
2023-09-06T01:37:15.018Z,18.56
2023-09-06T01:42:23.716Z,18.49
2023-09-06T01:47:31.173Z,18.39
2023-09-06T01:52:39.340Z,18.34
2023-09-06T01:57:42.251Z,18.32
2023-09-06T02:02:53.490Z,18.30
2023-09-06T02:07:56.515Z,18.30
2023-09-06T02:13:00.755Z,18.29
2023-09-06T02:18:04.007Z,18.25
2023-09-06T02:23:09.432Z,18.15
2023-09-06T02:28:12.225Z,18.05
2023-09-06T02:33:19.990Z,17.94
2023-09-06T02:38:24.770Z,17.94
2023-09-06T02:43:27.515Z,17.96
2023-09-06T02:48:35.958Z,17.97
2023-09-06T02:53:45.242Z,17.97
2023-09-06T02:58:48.933Z,17.94
2023-09-06T03:03:52.833Z,17.89
2023-09-06T03:09:00.679Z,17.86
2023-09-06T03:14:05.803Z,17.81
2023-09-06T03:19:11.424Z,17.79
2023-09-06T03:24:14.984Z,17.78
2023-09-06T03:29:18.972Z,17.76
2023-09-06T03:34:23.191Z,17.76
2023-09-06T03:39:31.955Z,17.79
2023-09-06T03:44:41.381Z,17.80
2023-09-06T03:49:46.277Z,17.81
2023-09-06T03:54:51.872Z,17.76
2023-09-06T04:00:26.118Z,17.78
2023-09-06T04:05:35.866Z,17.79
2023-09-06T04:10:41.600Z,17.92
2023-09-06T04:15:46.323Z,18.33
2023-09-06T04:21:01.258Z,19.04
2023-09-06T04:26:12.230Z,19.93
2023-09-06T04:31:15.003Z,20.94
2023-09-06T04:36:20.212Z,21.98
2023-09-06T04:41:25.409Z,23.06
2023-09-06T04:46:28.416Z,23.94
2023-09-06T04:51:32.667Z,24.42
2023-09-06T04:56:40.799Z,25.08
2023-09-06T05:01:43.852Z,25.80
2023-09-06T05:06:48.871Z,26.50
2023-09-06T05:11:52.040Z,27.34
2023-09-06T05:16:58.534Z,27.92
2023-09-06T05:22:05.028Z,28.28
2023-09-06T05:27:09.069Z,28.83
2023-09-06T05:38:06.699Z,30.34
2023-09-06T05:43:09.661Z,30.91
2023-09-06T05:48:15.045Z,31.54
2023-09-06T05:53:17.736Z,32.04
2023-09-06T05:58:22.738Z,32.48
2023-09-06T06:03:40.263Z,33.02
2023-09-06T06:08:46.426Z,33.70
2023-09-06T06:14:00.335Z,34.32
2023-09-06T06:19:15.945Z,34.71
2023-09-06T06:24:19.933Z,34.82
2023-09-06T06:29:25.474Z,34.88
2023-09-06T06:34:30.601Z,35.03
2023-09-06T06:39:41.409Z,35.33
2023-09-06T06:44:49.226Z,35.70
2023-09-06T06:49:56.173Z,36.06
2023-09-06T06:54:59.193Z,36.28
2023-09-06T07:00:09.290Z,36.43
2023-09-06T07:05:13.754Z,36.69
2023-09-06T07:10:19.096Z,36.96
2023-09-06T07:15:22.054Z,37.26
2023-09-06T07:20:27.794Z,37.42
2023-09-06T07:25:34.977Z,37.69
2023-09-06T07:30:37.804Z,37.83
2023-09-06T07:35:43.318Z,38.00
2023-09-06T07:40:46.083Z,38.05
2023-09-06T07:45:48.983Z,38.05
2023-09-06T08:08:59.729Z,38.34
2023-09-06T08:14:07.156Z,38.56
2023-09-06T08:19:15.376Z,38.55
2023-09-06T08:24:23.740Z,38.65
2023-09-06T08:29:30.118Z,38.74
2023-09-06T08:34:35.366Z,38.85
2023-09-06T08:39:40.764Z,38.84
2023-09-06T08:44:49.824Z,38.90
2023-09-06T08:49:58.028Z,38.80
2023-09-06T08:55:00.971Z,38.82
2023-09-06T09:00:16.657Z,38.79
2023-09-06T09:05:23.387Z,38.74
2023-09-06T09:10:32.956Z,38.93
2023-09-06T09:15:37.163Z,38.88
2023-09-06T09:20:47.793Z,38.76
2023-09-06T09:25:53.326Z,38.82
2023-09-06T09:30:59.955Z,38.73
2023-09-06T09:36:07.793Z,38.52
2023-09-06T09:41:12.303Z,38.35
2023-09-06T09:46:29.067Z,38.28
2023-09-06T09:51:35.485Z,38.49
2023-09-06T09:56:43.332Z,38.61
2023-09-06T10:01:46.431Z,38.55
2023-09-06T10:06:52.632Z,38.35
2023-09-06T10:12:00.952Z,38.36
2023-09-06T10:17:05.970Z,38.52
2023-09-06T10:22:16.529Z,38.12
2023-09-06T10:27:33.559Z,37.80
2023-09-06T10:32:47.299Z,36.89
2023-09-06T10:38:19.589Z,34.92
2023-09-06T10:43:29.299Z,33.28
2023-09-06T10:48:34.222Z,32.19
2023-09-06T10:54:08.304Z,31.46
2023-09-06T10:59:22.733Z,31.00
2023-09-06T11:04:28.864Z,30.86
2023-09-06T11:09:31.770Z,30.90
2023-09-06T11:14:35.054Z,30.90
2023-09-06T11:19:41.192Z,30.86
2023-09-06T11:24:45.614Z,30.81
2023-09-06T11:30:08.214Z,30.79
2023-09-06T11:35:12.315Z,30.71
2023-09-06T11:40:16.630Z,30.59
2023-09-06T11:45:25.943Z,30.35
2023-09-06T11:55:33.611Z,30.26
2023-09-06T12:00:49.461Z,30.21
2023-09-06T12:05:54.827Z,30.11
2023-09-06T12:11:11.609Z,29.93
2023-09-06T12:16:16.821Z,29.88
2023-09-06T12:21:22.858Z,29.58
2023-09-06T12:26:26.405Z,29.26
2023-09-06T12:31:29.961Z,29.10
2023-09-06T12:36:33.276Z,28.71
2023-09-06T12:41:40.684Z,28.44
2023-09-06T12:46:43.596Z,28.33
2023-09-06T12:51:49.285Z,28.24
2023-09-06T12:56:56.323Z,28.21
2023-09-06T13:01:59.114Z,28.36
2023-09-06T13:07:04.926Z,28.40
2023-09-06T13:12:10.784Z,28.46
2023-09-06T13:17:17.116Z,28.59
2023-09-06T13:22:20.216Z,28.55
2023-09-06T13:27:23.089Z,28.27
2023-09-06T13:32:32.135Z,28.19
2023-09-06T13:37:34.861Z,28.25
2023-09-06T13:42:38.007Z,28.11
2023-09-06T13:47:44.622Z,27.96
2023-09-06T13:52:48.980Z,27.85
2023-09-06T13:57:54.462Z,27.65
2023-09-06T14:02:57.480Z,27.44
2023-09-06T14:08:06.097Z,27.34
2023-09-06T14:13:08.840Z,27.29
2023-09-06T14:18:16.352Z,27.20
2023-09-06T14:23:23.604Z,27.03
2023-09-06T14:28:26.459Z,26.86
2023-09-06T14:33:38.250Z,26.79
2023-09-06T14:38:41.165Z,26.65
2023-09-06T14:43:45.264Z,26.43
2023-09-06T14:48:48.137Z,26.22
2023-09-06T14:53:57.202Z,26.11
2023-09-06T14:59:02.650Z,26.03
2023-09-06T15:04:07.219Z,25.96
2023-09-06T15:09:10.264Z,25.88
2023-09-06T15:14:13.532Z,25.80
2023-09-06T15:19:16.468Z,25.68
2023-09-06T15:24:19.863Z,25.57
2023-09-06T15:29:22.706Z,25.46
2023-09-06T15:34:28.171Z,25.37
2023-09-06T15:39:31.415Z,25.24
2023-09-06T15:44:36.421Z,25.13
2023-09-06T15:49:39.314Z,25.03
2023-09-06T15:54:45.333Z,24.94
2023-09-06T15:59:53.541Z,24.82
2023-09-06T16:04:56.891Z,24.73
2023-09-06T16:10:01.609Z,24.65
2023-09-06T16:15:05.847Z,24.55
2023-09-06T16:20:11.572Z,24.43
2023-09-06T16:25:14.454Z,24.33
2023-09-06T16:30:23.336Z,24.21
2023-09-06T16:35:34.057Z,24.08
2023-09-06T16:40:43.052Z,23.94
2023-09-06T16:45:45.898Z,23.80
2023-09-06T16:50:51.169Z,23.67
2023-09-06T16:55:56.330Z,23.51
2023-09-06T17:01:01.193Z,23.35
2023-09-06T17:06:04.257Z,23.19
2023-09-06T17:11:19.707Z,23.03
2023-09-06T17:16:24.876Z,22.83
2023-09-06T17:21:32.467Z,22.66
2023-09-06T17:26:42.819Z,22.49
2023-09-06T17:31:49.850Z,22.33
2023-09-06T17:36:56.561Z,22.17
2023-09-06T17:42:02.037Z,22.01
2023-09-06T17:47:08.158Z,21.86
2023-09-06T17:52:12.118Z,21.72
2023-09-06T17:57:17.489Z,21.72
2023-09-06T18:02:21.080Z,21.86
2023-09-06T18:07:23.933Z,21.60
2023-09-06T18:12:29.522Z,21.81
2023-09-06T18:17:32.419Z,21.99
2023-09-06T18:22:38.026Z,22.01
2023-09-06T18:27:41.620Z,21.91
2023-09-06T18:32:46.888Z,21.86
2023-09-06T18:37:50.717Z,21.77
2023-09-06T18:42:53.615Z,21.71
2023-09-06T18:48:01.067Z,21.61
2023-09-06T18:53:09.334Z,21.54
2023-09-06T18:58:14.842Z,21.37
2023-09-06T19:03:21.419Z,20.97
2023-09-06T19:08:24.469Z,21.00
2023-09-06T19:13:28.574Z,21.00
2023-09-06T19:18:34.140Z,20.95
2023-09-06T19:23:37.428Z,20.88
2023-09-06T19:28:44.032Z,20.80
2023-09-06T19:33:51.671Z,20.75
2023-09-06T19:38:54.547Z,20.67
2023-09-06T19:43:59.223Z,20.58
2023-09-06T19:49:09.712Z,20.45
2023-09-06T19:54:15.103Z,20.26
2023-09-06T19:59:19.769Z,20.11
2023-09-06T20:04:22.974Z,19.99
2023-09-06T20:09:30.536Z,19.90
2023-09-06T20:14:35.888Z,19.85
2023-09-06T20:19:39.968Z,19.79
2023-09-06T20:24:43.951Z,19.73
2023-09-06T20:29:48.470Z,19.67
2023-09-06T20:34:51.654Z,19.61
2023-09-06T20:39:59.729Z,19.53
2023-09-06T20:45:02.644Z,19.44
2023-09-06T20:50:15.816Z,19.37
2023-09-06T20:55:18.847Z,19.29
2023-09-06T21:00:28.787Z,19.18
2023-09-06T21:05:33.080Z,19.09
2023-09-06T21:10:36.677Z,19.02
2023-09-06T21:15:39.474Z,18.92
2023-09-06T21:20:42.768Z,18.81
2023-09-06T21:25:45.600Z,18.71
2023-09-06T21:30:52.400Z,18.63
2023-09-06T21:35:58.289Z,18.55
2023-09-06T21:41:02.458Z,18.49
2023-09-06T21:46:06.574Z,18.40
2023-09-06T21:51:14.769Z,18.39
2023-09-06T21:56:17.750Z,18.37
2023-09-06T22:01:23.021Z,18.26
2023-09-06T22:06:31.460Z,18.15
2023-09-06T22:11:38.842Z,18.10
2023-09-06T22:16:46.612Z,18.05
2023-09-06T22:21:52.699Z,18.02
2023-09-06T22:26:55.417Z,17.97
2023-09-06T22:32:01.885Z,17.94
2023-09-06T22:37:06.546Z,17.90
2023-09-06T22:42:12.682Z,17.84
2023-09-06T22:47:15.555Z,17.76
2023-09-06T22:52:18.895Z,17.72
2023-09-06T22:57:21.950Z,17.67
2023-09-06T23:02:53.880Z,17.60
2023-09-06T23:07:56.856Z,17.53
2023-09-06T23:13:02.199Z,17.42
2023-09-06T23:18:11.062Z,17.33
2023-09-06T23:23:18.098Z,17.26
2023-09-06T23:28:27.588Z,17.21
2023-09-06T23:33:42.643Z,17.17
2023-09-06T23:38:46.722Z,17.11
2023-09-06T23:43:52.793Z,17.04
2023-09-06T23:48:57.683Z,16.95
2023-09-06T23:54:00.482Z,16.86
2023-09-06T23:59:05.202Z,16.80
